Time;durP1;ratioP1;P1;durP2;ratioP2;P2;SDS_P1;SDS_P2;PMS_P1;PMS_P2;Temp;Humidity;BMP_temperature;BMP_pressure;BME280_temperature;BME280_humidity;BME280_pressure;Samples;Min_cycle;Max_cycle;Signal;HPM_P1;HPM_P2
2021/06/04 00:00:46;;;;;;;8.48;6.55;;;19.80;99.90;;;;;;1920961;73;21550;-76
2021/06/04 00:03:17;;;;;;;8.78;6.60;;;19.70;99.90;;;;;;1920693;73;21088;-75
2021/06/04 00:05:48;;;;;;;8.00;6.53;;;19.70;99.90;;;;;;1897801;75;21574;-75
2021/06/04 00:08:17;;;;;;;8.03;7.33;;;19.80;99.90;;;;;;1913316;74;21124;-75
2021/06/04 00:10:48;;;;;;;8.28;6.42;;;19.80;99.90;;;;;;1898507;75;21064;-75
2021/06/04 00:13:27;;;;;;;8.80;6.50;;;19.80;99.90;;;;;;1898306;75;21095;-75
2021/06/04 00:15:58;;;;;;;8.45;6.53;;;19.80;99.90;;;;;;1898604;75;21582;-77
2021/06/04 00:18:26;;;;;;;7.97;6.20;;;19.80;99.90;;;;;;1855865;76;21062;-77
2021/06/04 00:20:54;;;;;;;6.83;5.95;;;19.80;99.90;;;;;;1880540;76;21084;-77
2021/06/04 00:23:22;;;;;;;10.05;6.72;;;19.80;99.90;;;;;;1854906;76;21117;-77
2021/06/04 00:25:50;;;;;;;9.80;6.37;;;19.80;99.90;;;;;;1849360;77;21101;-77
2021/06/04 00:28:17;;;;;;;9.15;5.95;;;19.80;99.90;;;;;;1850293;76;21168;-77
2021/06/04 00:30:45;;;;;;;9.23;6.47;;;19.80;99.90;;;;;;1893939;75;21017;-77
2021/06/04 00:33:13;;;;;;;6.85;6.08;;;19.80;99.90;;;;;;1901171;75;21176;-75
2021/06/04 00:35:41;;;;;;;12.53;6.17;;;19.80;99.90;;;;;;1870668;75;21100;-77
2021/06/04 00:38:09;;;;;;;7.08;6.37;;;19.90;99.90;;;;;;1906986;75;21095;-77
2021/06/04 00:40:40;;;;;;;7.47;6.78;;;19.90;99.90;;;;;;1894608;74;21092;-77
2021/06/04 00:43:08;;;;;;;6.90;6.20;;;19.80;99.90;;;;;;1919729;73;21193;-78
2021/06/04 00:45:39;;;;;;;7.15;6.40;;;19.80;99.90;;;;;;1924204;73;21081;-78
2021/06/04 00:48:07;;;;;;;7.17;6.25;;;19.80;99.90;;;;;;1955540;73;21183;-75
2021/06/04 00:50:37;;;;;;;8.43;6.47;;;19.80;99.90;;;;;;1920955;73;21653;-76
2021/06/04 00:53:06;;;;;;;7.92;7.12;;;19.70;99.90;;;;;;1924082;73;21069;-76
2021/06/04 00:55:35;;;;;;;7.95;6.78;;;19.70;99.90;;;;;;1929544;73;21155;-77
2021/06/04 00:58:04;;;;;;;8.25;6.45;;;19.70;99.90;;;;;;1929276;73;21660;-77
2021/06/04 01:00:44;;;;;;;8.73;6.40;;;19.70;99.90;;;;;;1854142;76;21050;-75
2021/06/04 01:03:12;;;;;;;7.78;7.05;;;19.60;99.90;;;;;;1925222;74;21585;-77
2021/06/04 01:05:43;;;;;;;9.65;6.42;;;19.60;99.90;;;;;;1931013;73;21092;-76
2021/06/04 01:08:25;;;;;;;7.35;6.50;;;19.60;99.90;;;;;;1938600;73;21170;-76
2021/06/04 01:11:08;;;;;;;9.63;6.55;;;19.50;99.90;;;;;;1939180;73;21065;-76
2021/06/04 01:13:41;;;;;;;9.73;7.00;;;19.50;99.90;;;;;;1919697;73;21546;-76
2021/06/04 01:16:27;;;;;;;7.67;6.75;;;19.40;99.90;;;;;;1866435;76;21551;-78
2021/06/04 01:19:15;;;;;;;8.75;6.28;;;19.40;99.90;;;;;;1856583;76;21062;-78
2021/06/04 01:21:50;;;;;;;7.50;6.12;;;19.30;99.90;;;;;;1876343;76;21129;-78
2021/06/04 01:24:37;;;;;;;8.43;6.78;;;19.30;99.90;;;;;;1881367;76;21563;-76
2021/06/04 01:27:08;;;;;;;7.47;6.25;;;19.30;99.90;;;;;;1878246;76;21102;-75
2021/06/04 01:29:44;;;;;;;8.83;6.58;;;19.20;99.90;;;;;;1859377;76;21539;-76
2021/06/04 01:32:14;;;;;;;11.08;6.78;;;19.20;99.90;;;;;;1881086;76;21116;-78
2021/06/04 01:34:45;;;;;;;12.30;6.90;;;19.20;99.90;;;;;;1893854;75;21105;-78
2021/06/04 01:37:21;;;;;;;10.70;6.45;;;19.20;99.90;;;;;;1882908;75;21142;-77
2021/06/04 01:39:51;;;;;;;11.00;7.62;;;19.20;99.90;;;;;;1874281;75;21567;-76
2021/06/04 01:42:22;;;;;;;10.03;6.50;;;19.10;99.90;;;;;;1877347;75;21555;-77
2021/06/04 01:45:03;;;;;;;7.08;6.37;;;19.10;99.90;;;;;;1888895;74;21111;-76
2021/06/04 01:47:34;;;;;;;9.13;6.92;;;19.10;99.90;;;;;;1874302;74;21226;-77
2021/06/04 01:50:04;;;;;;;10.55;7.30;;;19.10;99.90;;;;;;1852990;77;21143;-76
2021/06/04 01:52:37;;;;;;;8.55;6.80;;;19.10;99.90;;;;;;1840752;77;21114;-77
2021/06/04 01:55:11;;;;;;;7.12;6.42;;;19.10;99.90;;;;;;1836800;77;21057;-76
2021/06/04 01:57:59;;;;;;;7.17;6.45;;;19.00;99.90;;;;;;1783764;80;21166;-76
2021/06/04 02:00:30;;;;;;;8.13;7.33;;;19.00;99.90;;;;;;1772276;81;21058;-76
2021/06/04 02:02:59;;;;;;;12.95;7.53;;;19.00;99.90;;;;;;1772307;80;21133;-77
2021/06/04 02:05:29;;;;;;;6.90;6.25;;;19.10;99.90;;;;;;1784586;80;21585;-77
2021/06/04 02:07:58;;;;;;;7.08;6.40;;;19.00;99.90;;;;;;1792492;79;21225;-78
2021/06/04 02:10:29;;;;;;;8.68;6.72;;;19.00;99.90;;;;;;1810545;77;21124;-77
2021/06/04 02:12:56;;;;;;;7.10;5.70;;;19.00;99.90;;;;;;1792540;79;21274;-76
2021/06/04 02:15:27;;;;;;;9.35;6.78;;;18.90;99.90;;;;;;1787393;79;21574;-76
2021/06/04 02:18:01;;;;;;;8.18;7.20;;;19.00;99.90;;;;;;1788866;79;21159;-75
2021/06/04 02:20:46;;;;;;;10.25;7.78;;;18.90;99.90;;;;;;1783834;79;21104;-76
2021/06/04 02:23:38;;;;;;;7.75;7.05;;;18.90;99.90;;;;;;1784494;79;21170;-74
2021/06/04 02:26:14;;;;;;;9.88;6.78;;;18.90;99.90;;;;;;1808313;79;21109;-75
2021/06/04 02:29:00;;;;;;;9.25;7.75;;;18.80;99.90;;;;;;1794127;79;21154;-77
2021/06/04 02:31:39;;;;;;;13.32;7.47;;;18.80;99.90;;;;;;1783619;80;21124;-75
2021/06/04 02:34:19;;;;;;;7.90;7.10;;;18.80;99.90;;;;;;1784961;78;21542;-75
2021/06/04 02:36:52;;;;;;;6.85;6.22;;;18.80;99.90;;;;;;1784561;79;21601;-77
2021/06/04 02:39:29;;;;;;;7.12;6.03;;;18.80;99.90;;;;;;1793114;79;21076;-77
2021/06/04 02:42:05;;;;;;;7.45;6.75;;;18.80;99.90;;;;;;1812753;79;21120;-77
2021/06/04 02:44:36;;;;;;;8.03;6.62;;;18.80;99.90;;;;;;1782601;79;21123;-76
2021/06/04 02:47:11;;;;;;;8.43;7.62;;;18.70;99.90;;;;;;1783881;80;21203;-75
2021/06/04 02:49:39;;;;;;;8.98;8.00;;;18.70;99.90;;;;;;1792248;79;21146;-76
2021/06/04 02:52:29;;;;;;;8.65;7.70;;;18.70;99.90;;;;;;1813586;79;21588;-76
2021/06/04 02:54:59;;;;;;;7.87;6.72;;;18.70;99.90;;;;;;1792865;78;21237;-76
2021/06/04 02:57:30;;;;;;;10.38;7.65;;;18.60;99.90;;;;;;1813391;78;21364;-76
2021/06/04 02:59:57;;;;;;;9.40;7.22;;;18.60;99.90;;;;;;1813146;79;21186;-76
2021/06/04 03:02:28;;;;;;;9.90;7.83;;;18.60;99.90;;;;;;1813331;77;21115;-76
2021/06/04 03:05:02;;;;;;;9.23;7.72;;;18.60;99.90;;;;;;1796529;79;21971;-76
2021/06/04 03:07:32;;;;;;;7.60;6.90;;;18.60;99.90;;;;;;1784793;78;22279;-78
2021/06/04 03:10:03;;;;;;;11.00;7.55;;;18.70;99.90;;;;;;1784063;80;21119;-76
2021/06/04 03:12:33;;;;;;;8.20;7.35;;;18.60;99.90;;;;;;1784410;79;21119;-76
2021/06/04 03:15:02;;;;;;;6.92;6.30;;;18.60;99.90;;;;;;1793596;79;21588;-76
2021/06/04 03:17:33;;;;;;;7.10;6.47;;;18.60;99.90;;;;;;1813517;78;21264;-76
2021/06/04 03:20:00;;;;;;;9.18;6.65;;;18.60;99.90;;;;;;1812532;79;21119;-75
2021/06/04 03:22:34;;;;;;;7.97;7.12;;;18.50;99.90;;;;;;1813191;78;21115;-75
2021/06/04 03:25:04;;;;;;;7.87;6.78;;;18.50;99.90;;;;;;1809816;79;21543;-75
2021/06/04 03:27:32;;;;;;;10.50;7.58;;;18.50;99.90;;;;;;1811969;79;21242;-75
2021/06/04 03:29:59;;;;;;;8.90;8.00;;;18.50;99.90;;;;;;1813170;79;21120;-76
2021/06/04 03:32:27;;;;;;;11.48;8.10;;;18.50;99.90;;;;;;1813231;79;21123;-75
2021/06/04 03:34:54;;;;;;;8.45;7.35;;;18.50;99.90;;;;;;1813305;79;21111;-76
2021/06/04 03:37:22;;;;;;;11.80;8.03;;;18.50;99.90;;;;;;1810694;79;21135;-75
2021/06/04 03:39:50;;;;;;;10.90;7.70;;;18.50;99.90;;;;;;1799436;78;21191;-75
2021/06/04 03:42:21;;;;;;;9.08;7.87;;;18.50;99.90;;;;;;1784052;80;21619;-75
2021/06/04 03:44:49;;;;;;;8.35;7.33;;;18.50;99.90;;;;;;1784736;80;21104;-77
2021/06/04 03:47:17;;;;;;;9.03;7.37;;;18.50;99.90;;;;;;1798688;77;21577;-76
2021/06/04 03:49:45;;;;;;;9.68;8.70;;;18.40;99.90;;;;;;1829277;77;21041;-76
2021/06/04 03:52:16;;;;;;;10.32;8.35;;;18.40;99.90;;;;;;1798062;79;21778;-77
2021/06/04 03:54:46;;;;;;;10.15;7.50;;;18.40;99.90;;;;;;1812642;77;21606;-76
2021/06/04 03:57:17;;;;;;;12.45;8.93;;;18.50;99.90;;;;;;1801992;79;21211;-77
2021/06/04 03:59:45;;;;;;;9.78;8.83;;;18.50;99.90;;;;;;1796147;79;21070;-75
2021/06/04 04:02:15;;;;;;;9.10;8.20;;;18.50;99.90;;;;;;1784511;80;21190;-75
2021/06/04 04:04:44;;;;;;;9.10;8.00;;;18.60;99.90;;;;;;1784562;80;21119;-74
2021/06/04 04:07:13;;;;;;;9.45;8.55;;;18.60;99.90;;;;;;1800537;78;22210;-74
2021/06/04 04:09:41;;;;;;;10.20;9.00;;;18.60;99.90;;;;;;1811593;79;21194;-74
2021/06/04 04:12:09;;;;;;;9.95;8.78;;;18.70;99.90;;;;;;1812987;78;21128;-74
2021/06/04 04:14:36;;;;;;;11.33;9.15;;;18.70;99.90;;;;;;1782712;80;21131;-75
2021/06/04 04:17:04;;;;;;;12.33;9.13;;;18.80;99.90;;;;;;1784655;80;21714;-74
2021/06/04 04:19:32;;;;;;;9.70;8.20;;;18.80;99.90;;;;;;1783876;80;21104;-74
2021/06/04 04:22:00;;;;;;;11.45;9.28;;;18.80;99.90;;;;;;1812610;77;21134;-75
2021/06/04 04:24:30;;;;;;;10.60;9.50;;;18.80;99.90;;;;;;1820063;77;21111;-75
2021/06/04 04:26:58;;;;;;;10.93;9.30;;;18.90;99.90;;;;;;1818012;77;21197;-74
2021/06/04 04:29:26;;;;;;;10.03;9.05;;;18.90;99.90;;;;;;1810318;77;21184;-75
2021/06/04 04:31:57;;;;;;;12.50;10.18;;;18.90;99.90;;;;;;1820864;77;21056;-74
2021/06/04 04:34:25;;;;;;;9.88;8.98;;;18.90;99.90;;;;;;1853907;77;21007;-74
2021/06/04 04:36:56;;;;;;;10.35;9.25;;;19.00;99.90;;;;;;1851018;77;21057;-72
2021/06/04 04:39:26;;;;;;;12.70;9.48;;;19.00;99.90;;;;;;1839405;77;21057;-73
2021/06/04 04:41:55;;;;;;;11.55;9.40;;;19.00;99.90;;;;;;1846868;77;21090;-73
2021/06/04 04:44:26;;;;;;;10.98;9.75;;;19.00;99.90;;;;;;1840233;77;21097;-73
2021/06/04 04:46:53;;;;;;;13.90;10.03;;;19.00;99.90;;;;;;1835593;77;21225;-77
2021/06/04 04:49:21;;;;;;;10.98;9.90;;;19.10;99.90;;;;;;1841359;77;21543;-76
2021/06/04 04:51:48;;;;;;;11.38;9.73;;;19.10;99.90;;;;;;1845658;77;21109;-77
2021/06/04 04:54:16;;;;;;;16.07;10.60;;;19.10;99.90;;;;;;1862252;76;21120;-77
2021/06/04 04:56:47;;;;;;;15.95;10.70;;;19.20;99.90;;;;;;1850743;76;21105;-77
2021/06/04 04:59:13;;;;;;;10.63;9.53;;;19.20;99.90;;;;;;1851715;76;21091;-77
2021/06/04 05:01:42;;;;;;;13.98;10.63;;;19.30;99.90;;;;;;1840327;76;21089;-74
2021/06/04 05:04:10;;;;;;;14.68;11.18;;;19.30;99.90;;;;;;1853655;77;21081;-75
2021/06/04 05:06:37;;;;;;;12.73;11.20;;;19.40;99.90;;;;;;1839684;77;21112;-74
2021/06/04 05:09:07;;;;;;;17.23;10.75;;;19.40;99.90;;;;;;1846723;77;21156;-74
2021/06/04 05:11:36;;;;;;;11.83;10.60;;;19.50;99.90;;;;;;1858428;76;21203;-74
2021/06/04 05:14:04;;;;;;;13.68;11.12;;;19.50;99.90;;;;;;1856440;77;21124;-72
2021/06/04 05:16:32;;;;;;;13.80;10.80;;;19.50;99.90;;;;;;1831058;77;21173;-74
2021/06/04 05:18:59;;;;;;;13.53;11.65;;;19.50;99.90;;;;;;1834290;77;21704;-74
2021/06/04 05:21:27;;;;;;;12.30;10.98;;;19.50;99.90;;;;;;1835046;77;21117;-74
2021/06/04 05:23:55;;;;;;;14.68;11.30;;;19.60;99.90;;;;;;1853381;77;21089;-74
2021/06/04 05:26:23;;;;;;;15.30;10.80;;;19.60;99.90;;;;;;1813318;79;21122;-75
2021/06/04 05:28:51;;;;;;;13.10;11.65;;;19.70;99.90;;;;;;1759046;80;21174;-75
2021/06/04 05:31:18;;;;;;;11.73;10.53;;;19.80;99.90;;;;;;1770397;80;21112;-76
2021/06/04 05:33:49;;;;;;;13.38;11.55;;;19.80;99.90;;;;;;1755176;80;21187;-76
2021/06/04 05:36:20;;;;;;;14.30;10.50;;;19.80;99.90;;;;;;1755752;80;21569;-76
2021/06/04 05:38:48;;;;;;;12.45;11.00;;;19.90;99.90;;;;;;1790529;80;21615;-76
2021/06/04 05:41:17;;;;;;;15.78;11.63;;;19.90;99.90;;;;;;1767976;81;21211;-76
2021/06/04 05:43:46;;;;;;;12.25;10.88;;;20.00;99.90;;;;;;1767930;81;21206;-76
2021/06/04 05:46:16;;;;;;;13.58;11.90;;;20.00;99.90;;;;;;1779434;80;21360;-76
2021/06/04 05:48:44;;;;;;;12.58;11.28;;;20.00;99.90;;;;;;1801210;79;21122;-76
2021/06/04 05:51:17;;;;;;;12.63;11.28;;;20.00;99.90;;;;;;1800598;80;21579;-76
2021/06/04 05:53:45;;;;;;;12.20;10.78;;;20.10;99.90;;;;;;1768806;79;21190;-76
2021/06/04 05:56:14;;;;;;;14.00;10.88;;;20.10;99.90;;;;;;1783902;80;21189;-76
2021/06/04 05:58:43;;;;;;;11.60;10.38;;;20.10;99.90;;;;;;1785045;79;21165;-75
2021/06/04 06:01:14;;;;;;;12.03;10.70;;;20.20;99.90;;;;;;1800533;79;21155;-75
2021/06/04 06:03:42;;;;;;;10.90;9.78;;;20.20;99.90;;;;;;1771690;80;21193;-76
2021/06/04 06:06:12;;;;;;;15.48;10.60;;;20.30;99.90;;;;;;1756306;79;21715;-74
2021/06/04 06:08:40;;;;;;;12.00;10.00;;;20.40;99.90;;;;;;1784232;80;21648;-74
2021/06/04 06:11:10;;;;;;;10.32;9.23;;;20.40;99.90;;;;;;1755609;82;21221;-75
2021/06/04 06:13:38;;;;;;;11.55;9.68;;;20.40;99.90;;;;;;1777844;80;21144;-75
2021/06/04 06:16:07;;;;;;;10.70;9.60;;;20.50;99.90;;;;;;1774292;80;21139;-77
2021/06/04 06:18:35;;;;;;;12.65;10.38;;;20.50;99.90;;;;;;1806832;77;21112;-74
2021/06/04 06:21:04;;;;;;;14.38;10.82;;;20.50;99.90;;;;;;1764522;78;21152;-76
2021/06/04 06:23:34;;;;;;;16.57;11.63;;;20.70;99.90;;;;;;1806161;78;21094;-73
2021/06/04 06:26:11;;;;;;;16.57;10.58;;;20.70;99.90;;;;;;1761362;79;21184;-70
2021/06/04 06:28:40;;;;;;;15.32;9.98;;;20.80;99.90;;;;;;1804063;77;21560;-70
2021/06/04 06:31:11;;;;;;;11.65;10.00;;;20.70;99.90;;;;;;1786699;77;21198;-70
2021/06/04 06:33:39;;;;;;;13.35;9.73;;;20.70;99.90;;;;;;1785417;79;21105;-69
2021/06/04 06:36:09;;;;;;;11.25;9.08;;;20.70;99.90;;;;;;1784062;79;21594;-70
2021/06/04 06:38:37;;;;;;;10.08;8.10;;;20.70;99.90;;;;;;1785663;78;21141;-72
2021/06/04 06:41:07;;;;;;;10.80;9.18;;;20.70;99.90;;;;;;1789087;77;21123;-70
2021/06/04 06:43:37;;;;;;;10.08;9.08;;;20.70;99.90;;;;;;1797108;77;21198;-74
2021/06/04 06:46:06;;;;;;;11.50;8.95;;;20.80;99.90;;;;;;1821445;78;21114;-75
2021/06/04 06:48:35;;;;;;;15.98;9.20;;;20.80;99.90;;;;;;1807797;78;21151;-76
2021/06/04 06:51:05;;;;;;;12.43;9.73;;;20.80;99.90;;;;;;1797967;77;21139;-77
2021/06/04 06:53:32;;;;;;;15.48;10.43;;;20.90;99.90;;;;;;1803451;78;21171;-75
2021/06/04 06:56:00;;;;;;;12.63;9.88;;;21.00;99.90;;;;;;1806252;79;21139;-75
2021/06/04 06:58:29;;;;;;;13.13;10.70;;;21.00;99.90;;;;;;1797595;79;21155;-77
2021/06/04 07:00:56;;;;;;;16.30;10.08;;;21.10;99.90;;;;;;1814775;77;22101;-77
2021/06/04 07:03:27;;;;;;;12.25;9.43;;;21.10;99.90;;;;;;1799314;77;21196;-74
2021/06/04 07:05:57;;;;;;;12.50;9.13;;;21.30;99.90;;;;;;1788666;79;21149;-76
2021/06/04 07:08:25;;;;;;;13.50;8.75;;;21.30;99.90;;;;;;1803667;79;21110;-77
2021/06/04 07:10:53;;;;;;;15.45;11.53;;;21.30;99.90;;;;;;1814657;77;21142;-76
2021/06/04 07:13:25;;;;;;;12.40;9.23;;;21.30;99.90;;;;;;1802203;79;21155;-76
2021/06/04 07:15:50;;;;;;;11.80;9.93;;;21.40;99.90;;;;;;1811014;79;21104;-77
2021/06/04 07:18:18;;;;;;;15.13;9.90;;;21.40;99.90;;;;;;1799394;77;21108;-77
2021/06/04 07:20:45;;;;;;;12.60;9.70;;;21.40;99.90;;;;;;1802774;77;21096;-77
2021/06/04 07:23:13;;;;;;;12.80;10.53;;;21.40;99.90;;;;;;1785712;80;21118;-76
2021/06/04 07:25:44;;;;;;;12.53;11.05;;;21.50;99.90;;;;;;1791751;79;21037;-78
2021/06/04 07:28:14;;;;;;;11.60;9.18;;;21.50;99.90;;;;;;1807272;77;21102;-78
2021/06/04 07:30:44;;;;;;;15.72;10.50;;;21.50;99.90;;;;;;1802318;78;21076;-77
2021/06/04 07:33:17;;;;;;;12.15;10.00;;;21.60;99.90;;;;;;1797857;77;21134;-75
2021/06/04 07:35:45;;;;;;;14.03;11.55;;;21.60;99.90;;;;;;1811638;77;21217;-76
2021/06/04 07:38:13;;;;;;;14.00;11.25;;;21.70;99.90;;;;;;1808023;77;21092;-75
2021/06/04 07:40:41;;;;;;;15.30;11.03;;;21.70;99.90;;;;;;1809537;77;21064;-75
2021/06/04 07:43:12;;;;;;;13.28;9.88;;;21.70;99.90;;;;;;1804430;77;21487;-75
2021/06/04 07:45:43;;;;;;;15.13;9.83;;;21.70;99.90;;;;;;1789991;77;21472;-75
2021/06/04 07:48:13;;;;;;;12.90;10.00;;;21.80;99.90;;;;;;1806208;77;21187;-75
2021/06/04 07:50:43;;;;;;;15.40;10.10;;;21.80;99.90;;;;;;1810247;77;21605;-76
2021/06/04 07:53:15;;;;;;;16.37;10.45;;;21.90;99.90;;;;;;1809140;78;21284;-76
2021/06/04 07:55:45;;;;;;;12.13;10.25;;;21.90;99.90;;;;;;1789510;77;21287;-76
2021/06/04 07:58:13;;;;;;;13.15;9.68;;;21.90;99.90;;;;;;1792197;79;21693;-76
2021/06/04 08:00:41;;;;;;;10.88;8.90;;;22.00;99.90;;;;;;1786058;79;21112;-75
2021/06/04 08:03:11;;;;;;;10.43;8.90;;;22.10;99.90;;;;;;1803049;79;21131;-76
2021/06/04 08:05:39;;;;;;;11.18;9.33;;;22.10;99.90;;;;;;1802364;78;21122;-75
2021/06/04 08:08:09;;;;;;;11.43;9.30;;;22.10;99.90;;;;;;1791537;79;21108;-75
2021/06/04 08:10:40;;;;;;;12.55;9.03;;;22.20;99.90;;;;;;1803275;77;21097;-77
2021/06/04 08:13:13;;;;;;;15.55;9.00;;;22.30;99.90;;;;;;1796277;77;21103;-76
2021/06/04 08:15:42;;;;;;;14.30;9.40;;;22.30;99.90;;;;;;1805462;77;21175;-77
2021/06/04 08:18:10;;;;;;;12.28;8.35;;;22.40;99.90;;;;;;1804713;77;21474;-74
2021/06/04 08:20:39;;;;;;;13.08;8.70;;;22.40;99.90;;;;;;1807504;77;21193;-74
2021/06/04 08:23:12;;;;;;;13.90;12.47;;;22.40;99.90;;;;;;1799335;79;21101;-73
2021/06/04 08:25:43;;;;;;;13.88;11.40;;;22.50;99.90;;;;;;1791656;78;21131;-74
2021/06/04 08:28:10;;;;;;;13.08;10.58;;;22.40;99.90;;;;;;1791601;77;21612;-74
2021/06/04 08:30:40;;;;;;;16.50;11.05;;;22.40;99.90;;;;;;1803401;77;21637;-74
2021/06/04 08:33:08;;;;;;;13.60;10.80;;;22.40;99.90;;;;;;1796111;77;21598;-73
2021/06/04 08:35:36;;;;;;;15.13;12.07;;;22.40;99.90;;;;;;1806111;77;21109;-73
2021/06/04 08:38:05;;;;;;;12.35;11.05;;;22.50;99.90;;;;;;1791636;77;21632;-73
2021/06/04 08:40:36;;;;;;;14.05;11.43;;;22.60;99.90;;;;;;1804966;77;21057;-75
2021/06/04 08:43:35;;;;;;;12.60;11.30;;;22.60;99.90;;;;;;1797218;78;21118;-76
2021/06/04 08:46:20;;;;;;;14.68;12.47;;;22.60;99.90;;;;;;1798796;77;21174;-71
2021/06/04 08:49:00;;;;;;;16.30;13.22;;;22.60;99.90;;;;;;1807136;77;22671;-72
2021/06/04 08:51:36;;;;;;;18.10;12.88;;;22.60;99.90;;;;;;1810331;77;21076;-71
2021/06/04 08:54:10;;;;;;;19.30;15.15;;;22.50;99.90;;;;;;1808670;77;21147;-74
2021/06/04 08:56:50;;;;;;;17.60;14.38;;;22.60;99.90;;;;;;1798672;79;21568;-78
2021/06/04 08:59:20;;;;;;;14.00;12.35;;;22.70;99.90;;;;;;1815643;78;21413;-78
2021/06/04 09:01:53;;;;;;;18.62;14.28;;;22.70;99.90;;;;;;1797019;77;21041;-80
2021/06/04 09:04:30;;;;;;;16.27;13.72;;;22.80;99.90;;;;;;1803898;78;21148;-74
2021/06/04 09:07:04;;;;;;;19.07;15.15;;;23.10;99.90;;;;;;1813410;77;21207;-75
2021/06/04 09:09:44;;;;;;;18.12;15.38;;;23.10;99.90;;;;;;1810798;77;21124;-74
2021/06/04 09:12:20;;;;;;;14.35;12.73;;;23.10;99.90;;;;;;1793646;79;21187;-75
2021/06/04 09:14:50;;;;;;;16.80;13.32;;;23.20;99.90;;;;;;1797859;79;21655;-74
2021/06/04 09:17:42;;;;;;;21.05;15.43;;;23.20;99.90;;;;;;1803048;78;21175;-75
2021/06/04 09:20:15;;;;;;;17.30;13.78;;;23.30;99.90;;;;;;1781118;79;21128;-77
2021/06/04 09:22:46;;;;;;;15.50;13.53;;;23.40;99.90;;;;;;1802686;77;21151;-74
2021/06/04 09:25:20;;;;;;;17.37;14.83;;;23.40;99.90;;;;;;1808379;79;21095;-73
2021/06/04 09:27:51;;;;;;;17.05;13.35;;;23.50;99.90;;;;;;1805565;79;21222;-74
2021/06/04 09:30:25;;;;;;;14.97;13.30;;;23.50;99.90;;;;;;1802370;79;21139;-72
2021/06/04 09:33:10;;;;;;;24.30;16.00;;;23.50;99.90;;;;;;1816142;79;21151;-73
2021/06/04 09:35:41;;;;;;;23.05;18.12;;;23.60;99.90;;;;;;1807836;77;21096;-73
2021/06/04 09:38:17;;;;;;;17.67;15.80;;;23.60;99.90;;;;;;1781544;78;21213;-74
2021/06/04 09:40:46;;;;;;;17.20;14.40;;;23.60;99.90;;;;;;1803597;77;21195;-74
2021/06/04 09:43:18;;;;;;;18.67;15.95;;;23.60;99.90;;;;;;1795201;79;21064;-72
2021/06/04 09:45:55;;;;;;;18.55;15.68;;;23.60;99.90;;;;;;1807964;79;21057;-71
2021/06/04 09:48:35;;;;;;;19.40;16.20;;;23.70;99.90;;;;;;1790617;77;21096;-71
2021/06/04 09:51:09;;;;;;;19.90;16.00;;;23.70;99.90;;;;;;1795546;77;21072;-70
2021/06/04 09:53:36;;;;;;;18.75;16.32;;;23.80;99.90;;;;;;1808364;79;21103;-71
2021/06/04 09:56:21;;;;;;;18.30;15.95;;;23.80;99.90;;;;;;1815161;77;21053;-71
2021/06/04 09:59:04;;;;;;;18.67;14.23;;;23.80;99.90;;;;;;1716027;80;21168;-73
2021/06/04 10:01:35;;;;;;;20.30;17.85;;;23.70;99.90;;;;;;1832287;77;21034;-69
2021/06/04 10:04:06;;;;;;;19.07;16.27;;;23.80;99.90;;;;;;1855696;77;21039;-69
2021/06/04 10:06:39;;;;;;;18.87;15.18;;;23.80;99.90;;;;;;1842123;77;21097;-70
2021/06/04 10:09:33;;;;;;;16.85;14.18;;;23.90;99.90;;;;;;1824073;77;21211;-70
2021/06/04 10:12:03;;;;;;;20.50;15.13;;;24.00;99.90;;;;;;1849867;77;21105;-69
2021/06/04 10:14:49;;;;;;;20.70;17.10;;;24.00;99.90;;;;;;1864171;76;21167;-68
2021/06/04 10:20:32;;;;;;;18.70;16.05;;;24.10;99.90;;;;;;1855374;76;21153;-69
2021/06/04 10:23:12;;;;;;;19.02;15.70;;;24.00;99.90;;;;;;1853445;76;21079;-69
2021/06/04 10:25:55;;;;;;;20.23;15.25;;;24.10;99.90;;;;;;1855677;76;21120;-69
2021/06/04 10:28:40;;;;;;;18.95;16.95;;;24.10;99.90;;;;;;1854394;76;21202;-70
2021/06/04 10:31:14;;;;;;;20.17;16.02;;;24.20;99.90;;;;;;1857846;76;21579;-70
2021/06/04 10:33:50;;;;;;;18.65;16.65;;;24.10;99.90;;;;;;1849848;76;21062;-70
2021/06/04 10:36:20;;;;;;;19.45;15.28;;;24.10;99.90;;;;;;1859469;76;21214;-71
2021/06/04 10:38:50;;;;;;;18.82;15.15;;;24.20;99.90;;;;;;1856789;75;21138;-70
2021/06/04 10:41:38;;;;;;;19.42;15.13;;;24.30;99.90;;;;;;1834328;76;21166;-70
2021/06/04 10:44:17;;;;;;;19.55;15.95;;;24.40;99.90;;;;;;1852580;76;21160;-69
2021/06/04 10:46:50;;;;;;;18.07;14.90;;;24.50;99.90;;;;;;1851895;76;21168;-69
2021/06/04 10:49:33;;;;;;;18.70;16.70;;;24.40;99.90;;;;;;1867873;76;21173;-69
2021/06/04 10:52:32;;;;;;;20.45;18.10;;;24.40;99.90;;;;;;1860685;76;21590;-70
2021/06/04 10:55:21;;;;;;;21.27;17.70;;;24.50;99.90;;;;;;1855019;77;21109;-69
2021/06/04 10:58:08;;;;;;;20.37;17.30;;;24.50;99.90;;;;;;1831236;77;21217;-69
2021/06/04 11:00:38;;;;;;;22.37;18.95;;;24.60;99.90;;;;;;1830875;77;21142;-69
2021/06/04 11:03:20;;;;;;;18.95;15.43;;;24.80;99.90;;;;;;1848026;77;21110;-70
2021/06/04 11:05:54;;;;;;;20.90;17.80;;;24.80;99.90;;;;;;1868561;76;21098;-73
2021/06/04 11:08:37;;;;;;;16.23;12.68;;;24.90;99.90;;;;;;1856266;76;21686;-72
2021/06/04 11:11:23;;;;;;;14.78;12.58;;;25.00;99.90;;;;;;1853385;76;21074;-74
2021/06/04 11:14:08;;;;;;;14.55;12.73;;;25.10;99.90;;;;;;1863834;76;21082;-71
2021/06/04 11:16:47;;;;;;;14.90;13.20;;;25.20;99.90;;;;;;1862540;76;21030;-67
2021/06/04 11:19:41;;;;;;;17.25;12.68;;;25.50;99.90;;;;;;1862835;76;21522;-70
2021/06/04 11:22:15;;;;;;;16.62;12.88;;;25.80;99.90;;;;;;1845606;76;21571;-70
2021/06/04 11:24:45;;;;;;;15.85;14.13;;;26.10;99.90;;;;;;1847495;76;21063;-69
2021/06/04 11:27:22;;;;;;;17.45;15.55;;;26.20;99.90;;;;;;1862755;75;21027;-70
2021/06/04 11:29:50;;;;;;;19.73;17.62;;;26.30;99.90;;;;;;1852406;76;21092;-68
2021/06/04 11:32:20;;;;;;;19.07;16.95;;;26.30;99.90;;;;;;1850368;76;21007;-68
2021/06/04 11:34:58;;;;;;;16.15;14.40;;;26.40;99.90;;;;;;1848368;77;21645;-68
2021/06/04 11:37:43;;;;;;;16.40;14.70;;;26.40;99.90;;;;;;1847893;76;21034;-68
2021/06/04 11:40:16;;;;;;;16.50;14.80;;;26.60;99.90;;;;;;1841267;76;21543;-67
2021/06/04 11:42:50;;;;;;;19.02;14.68;;;26.60;99.90;;;;;;1843182;76;21356;-68
2021/06/04 11:45:22;;;;;;;15.10;13.22;;;26.70;99.90;;;;;;1860404;76;21101;-68
2021/06/04 11:47:51;;;;;;;16.97;15.18;;;26.70;99.90;;;;;;1867690;76;21040;-68
2021/06/04 11:50:30;;;;;;;18.87;16.82;;;26.80;99.90;;;;;;1852215;76;21615;-68
2021/06/04 11:53:01;;;;;;;18.92;16.95;;;26.70;99.90;;;;;;1830011;76;21125;-67
2021/06/04 11:55:35;;;;;;;24.47;21.02;;;26.60;99.90;;;;;;1835146;77;21116;-66
2021/06/04 11:58:20;;;;;;;21.27;18.98;;;26.60;99.90;;;;;;1843619;76;21144;-67
2021/06/04 12:00:52;;;;;;;20.92;18.73;;;26.50;99.90;;;;;;1851067;77;21183;-68
2021/06/04 12:03:25;;;;;;;18.10;16.20;;;26.50;99.90;;;;;;1839870;77;21571;-66
2021/06/04 12:05:59;;;;;;;20.95;18.75;;;26.40;99.90;;;;;;1860648;76;21118;-67
2021/06/04 12:08:32;;;;;;;17.87;15.45;;;26.40;99.90;;;;;;1852192;76;21379;-67
2021/06/04 12:11:06;;;;;;;20.48;18.48;;;26.50;99.90;;;;;;1868465;77;21067;-67
2021/06/04 12:13:44;;;;;;;26.37;22.67;;;26.70;99.90;;;;;;1844941;76;21126;-68
2021/06/04 12:16:29;;;;;;;25.23;22.55;;;26.80;99.90;;;;;;1853249;76;21058;-67
2021/06/04 12:19:09;;;;;;;29.05;22.42;;;26.80;99.90;;;;;;1853812;76;21157;-67
2021/06/04 12:21:43;;;;;;;24.80;22.17;;;27.00;99.90;;;;;;1855430;76;21191;-68
2021/06/04 12:24:26;;;;;;;23.40;20.90;;;27.00;99.90;;;;;;1852564;76;21733;-70
2021/06/04 12:27:14;;;;;;;24.40;19.37;;;27.10;99.90;;;;;;1853586;76;21112;-67
2021/06/04 12:29:48;;;;;;;25.88;22.95;;;27.20;99.90;;;;;;1856051;76;21230;-71
2021/06/04 12:32:29;;;;;;;23.90;21.37;;;27.30;99.90;;;;;;1842583;77;21145;-69
2021/06/04 12:35:00;;;;;;;24.17;21.30;;;27.30;99.90;;;;;;1865003;77;22737;-69
2021/06/04 12:37:33;;;;;;;24.55;22.02;;;27.30;99.90;;;;;;1860815;75;21113;-70
2021/06/04 12:40:22;;;;;;;26.50;23.47;;;27.40;99.90;;;;;;1850616;76;21097;-72
2021/06/04 12:42:59;;;;;;;26.93;24.18;;;27.50;99.90;;;;;;1864022;76;21046;-71
2021/06/04 12:45:35;;;;;;;25.85;22.15;;;27.50;99.90;;;;;;1861362;76;21054;-70
2021/06/04 12:48:26;;;;;;;22.00;19.65;;;27.60;99.90;;;;;;1822211;77;21648;-70
2021/06/04 12:50:59;;;;;;;30.72;25.02;;;27.60;99.90;;;;;;1871076;76;21022;-71
2021/06/04 12:53:36;;;;;;;24.70;22.02;;;27.70;99.90;;;;;;1839600;76;21090;-71
2021/06/04 12:56:18;;;;;;;18.05;16.15;;;27.80;99.90;;;;;;1865485;76;21038;-71
2021/06/04 12:58:48;;;;;;;19.12;17.12;;;27.80;99.90;;;;;;1855712;76;21722;-70
2021/06/04 13:01:19;;;;;;;21.50;17.48;;;27.80;99.90;;;;;;1820736;77;21197;-70
2021/06/04 13:03:50;;;;;;;17.87;15.55;;;27.80;99.90;;;;;;1854548;76;21093;-70